Time;durP1;ratioP1;P1;durP2;ratioP2;P2;SDS_P1;SDS_P2;PMS_P1;PMS_P2;Temp;Humidity;BMP_temperature;BMP_pressure;BME280_temperature;BME280_humidity;BME280_pressure;Samples;Min_cycle;Max_cycle;Signal;HPM_P1;HPM_P2
2022/09/10 00:00:39;;;;;;;;;3.00;1.67;;;;;16.58;72.24;100784.94;5097219;27;45420;-59
2022/09/10 00:03:05;;;;;;;;;2.00;2.00;;;;;16.59;72.42;100784.81;5096683;27;45543;-59
2022/09/10 00:05:39;;;;;;;;;1.00;1.00;;;;;16.56;72.04;100782.38;5096062;27;46364;-59
2022/09/10 00:08:05;;;;;;;;;4.00;2.33;;;;;16.57;72.25;100784.09;5092612;27;45244;-59
2022/09/10 00:10:36;;;;;;;;;3.00;3.00;;;;;16.58;72.44;100790.31;5082084;27;45264;-59
2022/09/10 00:13:01;;;;;;;;;4.33;3.00;;;;;16.57;72.54;100789.47;5087348;27;45388;-60
2022/09/10 00:15:27;;;;;;;;;2.67;2.67;;;;;16.55;72.73;100796.78;5093051;27;45373;-60
2022/09/10 00:17:52;;;;;;;;;2.00;2.00;;;;;16.44;72.37;100776.13;5096777;27;45391;-60
2022/09/10 00:20:18;;;;;;;;;3.67;3.67;;;;;16.51;72.41;100782.72;5096401;27;45425;-60
2022/09/10 00:22:43;;;;;;;;;3.00;3.00;;;;;16.46;72.50;100771.50;5096413;27;45405;-60
2022/09/10 00:25:09;;;;;;;;;2.00;2.00;;;;;16.52;72.45;100781.75;5086754;27;45508;-59
2022/09/10 00:27:34;;;;;;;;;2.33;1.33;;;;;16.49;72.66;100781.97;5077342;27;45390;-59
2022/09/10 00:30:01;;;;;;;;;3.00;2.00;;;;;16.49;72.40;100775.75;5085740;27;45372;-59
2022/09/10 00:32:26;;;;;;;;;3.33;2.00;;;;;16.48;73.00;100766.00;5077341;27;45388;-59
2022/09/10 00:34:53;;;;;;;;;2.00;2.00;;;;;16.47;72.38;100766.97;5081075;27;48896;-59
2022/09/10 00:37:19;;;;;;;;;3.00;2.00;;;;;16.44;72.62;100767.22;5095663;27;45421;-59
2022/09/10 00:39:45;;;;;;;;;6.67;3.00;;;;;16.45;72.83;100764.41;5096391;27;45467;-59
2022/09/10 00:42:11;;;;;;;;;3.00;2.67;;;;;16.44;72.72;100762.72;5095211;27;45461;-60
2022/09/10 00:44:37;;;;;;;;;2.00;2.00;;;;;16.43;72.95;100766.38;5095653;27;46818;-60
2022/09/10 00:47:04;;;;;;;;;1.67;1.67;;;;;16.44;72.83;100768.06;5077890;27;45492;-60
2022/09/10 00:49:39;;;;;;;;;2.33;2.33;;;;;16.39;72.54;100762.19;5081757;27;46959;-60
2022/09/10 00:52:06;;;;;;;;;1.00;1.00;;;;;16.39;72.77;100767.56;5098095;27;45496;-61
2022/09/10 00:54:35;;;;;;;;;2.33;1.67;;;;;16.41;72.92;100762.97;5094961;27;45524;-59
2022/09/10 00:57:10;;;;;;;;;1.33;1.33;;;;;16.39;73.04;100754.13;5091559;27;45368;-60
2022/09/10 00:59:35;;;;;;;;;1.00;1.00;;;;;16.33;73.14;100743.91;5086162;27;45321;-60
2022/09/10 01:02:01;;;;;;;;;5.67;1.67;;;;;16.34;72.91;100755.47;5096165;27;45533;-59
2022/09/10 01:04:27;;;;;;;;;2.00;2.00;;;;;16.35;72.92;100757.19;5092173;27;46064;-60
2022/09/10 01:06:54;;;;;;;;;2.00;1.00;;;;;16.33;72.69;100746.56;5096804;27;45319;-60
2022/09/10 01:09:22;;;;;;;;;1.00;1.00;;;;;16.32;72.96;100752.91;5089586;27;45464;-59
2022/09/10 01:12:09;;;;;;;;;4.33;2.00;;;;;16.34;73.18;100759.03;5095540;27;45547;-61
2022/09/10 01:15:06;;;;;;;;;1.33;1.33;;;;;16.31;72.96;100755.72;5096200;27;45349;-59
2022/09/10 01:17:56;;;;;;;;;4.33;1.67;;;;;16.31;73.09;100755.72;5069798;27;45757;-59
2022/09/10 01:21:00;;;;;;;;;2.00;2.00;;;;;16.31;72.78;100756.59;5089769;27;45274;-60
2022/09/10 01:24:03;;;;;;;;;2.67;2.00;;;;;16.31;73.00;100767.31;5034099;28;45628;-59
2022/09/10 01:26:42;;;;;;;;;3.67;2.00;;;;;16.30;73.13;100754.88;5033718;28;45280;-59
2022/09/10 01:29:23;;;;;;;;;1.00;1.00;;;;;16.30;73.34;100757.56;5068708;27;48053;-59
2022/09/10 01:32:11;;;;;;;;;2.00;2.00;;;;;16.32;73.29;100763.66;5092910;27;45296;-59
2022/09/10 01:34:44;;;;;;;;;4.33;2.00;;;;;16.30;72.66;100776.34;5094583;27;45506;-59
2022/09/10 01:37:20;;;;;;;;;5.00;2.00;;;;;16.31;73.34;100769.16;5092418;27;45283;-60
2022/09/10 01:39:47;;;;;;;;;2.00;2.00;;;;;16.36;73.78;100777.69;5081497;27;45501;-60
2022/09/10 01:42:14;;;;;;;;;4.00;2.00;;;;;16.28;73.53;100762.19;5090101;27;45643;-61
2022/09/10 01:44:48;;;;;;;;;3.00;0.00;;;;;16.36;73.32;100775.00;5092889;27;45545;-59
2022/09/10 01:47:22;;;;;;;;;5.33;2.00;;;;;16.35;73.22;100768.78;5094435;27;46213;-60
2022/09/10 01:50:01;;;;;;;;;2.00;2.00;;;;;16.34;73.48;100761.72;5089518;27;45450;-60
2022/09/10 01:52:46;;;;;;;;;3.33;2.00;;;;;16.31;73.31;100764.63;5078718;27;45365;-60
2022/09/10 01:55:21;;;;;;;;;3.33;3.00;;;;;16.29;73.32;100769.28;5087293;27;45283;-60
2022/09/10 01:58:03;;;;;;;;;2.33;1.00;;;;;16.31;73.50;100767.31;5096330;27;45353;-59
2022/09/10 02:00:32;;;;;;;;;1.67;1.67;;;;;16.31;73.90;100778.06;5094560;27;45522;-60
2022/09/10 02:03:04;;;;;;;;;3.33;3.00;;;;;16.33;73.59;100778.78;5093757;27;45610;-60
2022/09/10 02:05:34;;;;;;;;;3.00;1.00;;;;;16.34;73.55;100777.81;5078532;27;45467;-59
2022/09/10 02:08:16;;;;;;;;;3.67;2.00;;;;;16.29;73.49;100763.91;5077778;27;46953;-60
2022/09/10 02:10:58;;;;;;;;;3.67;2.00;;;;;16.34;73.73;100767.06;5097961;27;45490;-59
2022/09/10 02:13:25;;;;;;;;;2.00;2.00;;;;;16.32;73.66;100763.66;5098470;27;45433;-59
2022/09/10 02:15:51;;;;;;;;;2.00;2.00;;;;;16.26;73.59;100756.06;5099092;27;45508;-59
2022/09/10 02:18:19;;;;;;;;;2.00;2.00;;;;;16.30;73.77;100776.34;5098987;27;46186;-59
2022/09/10 02:20:47;;;;;;;;;2.67;2.00;;;;;16.32;73.68;100774.41;5097246;27;45463;-60
2022/09/10 02:23:17;;;;;;;;;5.00;2.00;;;;;16.34;73.77;100769.75;5100160;27;45458;-61
2022/09/10 02:25:42;;;;;;;;;3.00;3.00;;;;;16.35;73.41;100771.47;5093874;27;45430;-61
2022/09/10 02:28:09;;;;;;;;;4.00;2.00;;;;;16.37;73.33;100771.34;5098547;27;46313;-60
2022/09/10 02:30:35;;;;;;;;;1.00;1.00;;;;;16.32;73.54;100763.66;5091587;27;45332;-60
2022/09/10 02:33:00;;;;;;;;;3.00;2.00;;;;;16.37;73.90;100766.81;5094120;27;45585;-58
2022/09/10 02:35:26;;;;;;;;;4.00;2.00;;;;;16.40;73.28;100768.41;5079443;27;45302;-60
2022/09/10 02:37:52;;;;;;;;;1.67;1.33;;;;;16.41;73.25;100773.69;5083469;27;46225;-60
2022/09/10 02:40:18;;;;;;;;;4.33;2.00;;;;;16.41;73.08;100776.38;5091052;27;45602;-60
2022/09/10 02:42:45;;;;;;;;;2.00;2.00;;;;;16.38;73.21;100767.69;5099852;27;45427;-61
2022/09/10 02:45:12;;;;;;;;;2.67;2.67;;;;;16.42;73.65;100775.41;5080237;27;45412;-62
2022/09/10 02:47:37;;;;;;;;;1.00;1.00;;;;;16.42;72.76;100772.72;5093876;27;45993;-59
2022/09/10 02:50:03;;;;;;;;;3.00;2.00;;;;;16.44;73.22;100770.75;5099739;27;45264;-60
2022/09/10 02:52:29;;;;;;;;;3.00;3.00;;;;;16.45;72.94;100766.25;5079950;27;45337;-60
2022/09/10 02:54:54;;;;;;;;;6.00;2.00;;;;;16.41;72.85;100757.59;5096147;27;45495;-60
2022/09/10 02:57:20;;;;;;;;;6.67;2.00;;;;;16.48;73.03;100763.31;5079826;27;45485;-60
2022/09/10 02:59:45;;;;;;;;;4.33;3.00;;;;;16.48;72.99;100763.31;5087775;27;45514;-60
2022/09/10 03:02:11;;;;;;;;;2.00;2.00;;;;;16.49;73.13;100773.06;5081552;27;45939;-61
2022/09/10 03:04:36;;;;;;;;;4.00;3.00;;;;;16.50;72.79;100766.72;5088210;27;45592;-60
2022/09/10 03:07:02;;;;;;;;;2.00;2.00;;;;;16.48;72.76;100769.53;5090471;27;45282;-59
2022/09/10 03:09:27;;;;;;;;;2.00;2.00;;;;;16.50;73.10;100767.59;5093569;27;45514;-60
2022/09/10 03:11:53;;;;;;;;;3.00;3.00;;;;;16.55;72.50;100777.13;5099190;27;45687;-59
2022/09/10 03:14:22;;;;;;;;;6.33;2.00;;;;;16.57;72.74;100788.59;5099173;27;45468;-60
2022/09/10 03:16:47;;;;;;;;;5.67;3.33;;;;;16.60;72.79;100793.72;5095909;27;45521;-59
2022/09/10 03:19:13;;;;;;;;;3.00;1.67;;;;;16.60;72.46;100782.97;5088097;27;45498;-60
2022/09/10 03:21:42;;;;;;;;;3.67;3.33;;;;;16.59;72.12;100781.28;5085936;27;45168;-59
2022/09/10 03:24:09;;;;;;;;;3.00;3.00;;;;;16.60;72.64;100777.63;5078875;27;45219;-59
2022/09/10 03:26:35;;;;;;;;;2.00;2.00;;;;;16.60;72.65;100775.78;5078512;27;45396;-59
2022/09/10 03:29:02;;;;;;;;;1.00;1.00;;;;;16.55;72.48;100769.06;5078937;27;45595;-60
2022/09/10 03:31:27;;;;;;;;;2.00;2.00;;;;;16.62;72.64;100781.03;5086102;27;45488;-60
2022/09/10 03:33:53;;;;;;;;;4.33;3.00;;;;;16.61;72.61;100782.00;5094094;27;46348;-60
2022/09/10 03:36:19;;;;;;;;;3.00;3.00;;;;;16.66;72.41;100779.81;5089952;27;45758;-59
2022/09/10 03:38:45;;;;;;;;;2.33;2.33;;;;;16.67;72.22;100778.84;5085617;27;45467;-60
2022/09/10 03:41:10;;;;;;;;;2.67;2.67;;;;;16.68;72.03;100780.59;5080795;27;45529;-60
2022/09/10 03:43:36;;;;;;;;;5.00;3.00;;;;;16.70;71.95;100778.66;5098813;27;45560;-60
2022/09/10 03:46:02;;;;;;;;;3.00;2.00;;;;;16.72;72.09;100782.91;5112396;27;46993;-60
2022/09/10 03:48:28;;;;;;;;;6.00;2.67;;;;;16.69;72.02;100772.41;5098135;27;45376;-59
2022/09/10 03:50:54;;;;;;;;;3.00;1.67;;;;;16.75;71.66;100779.13;5088109;27;45489;-59
2022/09/10 03:53:20;;;;;;;;;3.00;3.00;;;;;16.69;71.92;100772.41;5078851;28;45432;-60
2022/09/10 03:55:47;;;;;;;;;1.67;1.67;;;;;16.75;71.79;100779.97;5078202;27;46293;-59
2022/09/10 03:58:13;;;;;;;;;1.33;1.33;;;;;16.77;71.54;100783.38;5090607;27;45414;-59
2022/09/10 04:00:38;;;;;;;;;3.00;3.00;;;;;16.76;71.60;100791.56;5087693;27;45238;-60
2022/09/10 04:03:04;;;;;;;;;3.00;2.00;;;;;16.75;71.85;100788.03;5078586;27;45263;-59
2022/09/10 04:05:31;;;;;;;;;3.67;1.33;;;;;16.77;71.78;100782.53;5084387;27;45428;-61
2022/09/10 04:08:00;;;;;;;;;2.00;2.00;;;;;16.72;72.23;100771.31;5078796;27;45287;-60
2022/09/10 04:10:26;;;;;;;;;4.00;3.00;;;;;16.66;71.86;100772.59;5083875;27;46013;-58
2022/09/10 04:12:52;;;;;;;;;2.33;2.33;;;;;16.75;71.89;100787.19;5098572;27;45436;-59
2022/09/10 04:15:19;;;;;;;;;2.00;2.00;;;;;16.75;71.74;100777.28;5084315;27;45334;-60
2022/09/10 04:17:51;;;;;;;;;3.00;2.00;;;;;16.73;71.97;100786.44;5078012;27;45328;-61
2022/09/10 04:20:22;;;;;;;;;3.33;2.00;;;;;16.74;71.72;100789.00;5091144;27;45438;-60
2022/09/10 04:22:48;;;;;;;;;4.00;2.00;;;;;16.76;71.93;100788.88;5098488;27;45531;-60
2022/09/10 04:25:14;;;;;;;;;4.00;3.00;;;;;16.74;71.81;100785.47;5090965;27;46486;-60
2022/09/10 04:27:41;;;;;;;;;3.33;2.00;;;;;16.74;71.71;100785.47;5090828;27;45845;-59
2022/09/10 04:30:07;;;;;;;;;1.00;1.00;;;;;16.76;71.89;100786.19;5088789;27;45586;-59
2022/09/10 04:32:32;;;;;;;;;2.00;2.00;;;;;16.73;72.01;100783.75;5096823;27;45989;-61
2022/09/10 04:34:58;;;;;;;;;2.00;2.00;;;;;16.71;71.91;100781.22;5092326;27;45724;-59
2022/09/10 04:37:24;;;;;;;;;2.00;1.00;;;;;16.70;71.98;100784.88;5091756;27;45350;-60
2022/09/10 04:39:49;;;;;;;;;4.00;2.67;;;;;16.70;72.19;100784.00;5087400;27;45558;-59
2022/09/10 04:42:16;;;;;;;;;4.00;2.33;;;;;16.70;72.02;100789.38;5078846;27;45527;-59
2022/09/10 04:44:41;;;;;;;;;3.67;2.33;;;;;16.72;71.89;100790.97;5077946;27;47202;-62
2022/09/10 04:47:07;;;;;;;;;2.00;1.33;;;;;16.72;71.87;100784.75;5088670;27;45523;-62
2022/09/10 04:49:32;;;;;;;;;3.67;2.33;;;;;16.70;71.85;100784.00;5095951;27;45474;-60
2022/09/10 04:51:58;;;;;;;;;1.67;1.67;;;;;16.67;72.23;100789.59;5097537;27;45547;-59
2022/09/10 04:54:23;;;;;;;;;3.00;3.00;;;;;16.67;72.01;100786.91;5096807;27;46315;-59
2022/09/10 04:56:49;;;;;;;;;2.67;1.00;;;;;16.68;71.94;100784.13;5092288;27;46000;-60
2022/09/10 04:59:14;;;;;;;;;2.00;2.00;;;;;16.66;72.01;100793.22;5085217;27;45423;-59
2022/09/10 05:01:40;;;;;;;;;2.33;2.33;;;;;16.64;72.08;100797.88;5094841;27;45493;-59
2022/09/10 05:04:05;;;;;;;;;2.67;2.67;;;;;16.60;71.86;100793.72;5091748;27;45852;-59
2022/09/10 05:06:30;;;;;;;;;3.67;3.67;;;;;16.57;72.27;100800.19;5088639;27;45539;-60
2022/09/10 05:08:56;;;;;;;;;4.33;3.00;;;;;16.60;72.23;100799.09;5094995;27;45672;-62
2022/09/10 05:11:22;;;;;;;;;2.00;2.00;;;;;16.63;72.06;100817.66;5096197;27;45642;-59
2022/09/10 05:13:48;;;;;;;;;4.00;2.67;;;;;16.64;72.17;100808.63;5095440;27;47280;-60
2022/09/10 05:16:13;;;;;;;;;4.33;3.33;;;;;16.68;72.16;100824.41;5079571;27;45407;-60
2022/09/10 05:18:38;;;;;;;;;3.00;1.00;;;;;16.68;72.39;100823.56;5077265;27;45170;-60
2022/09/10 05:21:04;;;;;;;;;6.33;5.00;;;;;16.68;72.17;100821.72;5076479;27;45627;-60
2022/09/10 05:23:30;;;;;;;;;2.67;2.00;;;;;16.69;72.59;100819.91;5075024;27;46118;-59
2022/09/10 05:25:56;;;;;;;;;2.00;1.00;;;;;16.71;72.26;100828.69;5078387;27;45355;-58
2022/09/10 05:28:21;;;;;;;;;2.67;2.67;;;;;16.72;72.24;100827.72;5097875;27;45261;-58
2022/09/10 05:30:47;;;;;;;;;2.67;2.00;;;;;16.69;72.19;100819.91;5094936;27;45937;-60
2022/09/10 05:33:13;;;;;;;;;2.33;2.33;;;;;16.70;72.13;100821.59;5096847;27;46248;-59
2022/09/10 05:35:38;;;;;;;;;3.00;1.67;;;;;16.71;72.05;100834.06;5084447;27;45600;-58
2022/09/10 05:38:03;;;;;;;;;2.00;2.00;;;;;16.71;72.13;100831.38;5094874;27;45633;-63
2022/09/10 05:40:29;;;;;;;;;2.00;2.00;;;;;16.72;72.09;100835.78;5087760;27;45576;-60
2022/09/10 05:42:54;;;;;;;;;3.00;1.00;;;;;16.72;71.66;100842.00;5096005;27;45445;-59
2022/09/10 05:45:22;;;;;;;;;2.67;2.67;;;;;16.72;72.17;100842.00;5095503;27;45417;-59
2022/09/10 05:47:48;;;;;;;;;3.00;3.00;;;;;16.72;72.11;100839.31;5096752;27;45452;-60
2022/09/10 05:50:14;;;;;;;;;3.00;3.00;;;;;16.73;72.24;100848.22;5081340;27;45242;-62
2022/09/10 05:52:39;;;;;;;;;2.00;2.00;;;;;16.74;72.07;100849.94;5076160;27;45346;-59
2022/09/10 05:55:06;;;;;;;;;2.33;2.00;;;;;16.71;71.99;100848.34;5064398;27;45429;-59
2022/09/10 05:57:31;;;;;;;;;3.33;1.33;;;;;16.73;72.05;100858.97;5093019;27;45277;-59
2022/09/10 05:59:58;;;;;;;;;1.33;1.33;;;;;16.72;72.20;100854.56;5093945;27;45535;-60
2022/09/10 06:02:25;;;;;;;;;4.33;3.00;;;;;16.75;71.85;100848.94;5099865;27;46352;-59
2022/09/10 06:04:50;;;;;;;;;2.67;2.00;;;;;16.76;71.84;100864.09;5079731;27;45604;-59
2022/09/10 06:07:16;;;;;;;;;2.00;2.00;;;;;16.78;71.88;100867.50;5083362;27;45395;-59
2022/09/10 06:09:41;;;;;;;;;2.00;2.00;;;;;16.76;72.08;100875.69;5096783;27;45429;-58
2022/09/10 06:12:07;;;;;;;;;2.00;2.00;;;;;16.79;71.89;100870.06;5094746;27;46368;-58
2022/09/10 06:14:32;;;;;;;;;3.00;3.00;;;;;16.80;72.03;100881.69;5096446;27;45412;-59
2022/09/10 06:16:57;;;;;;;;;2.33;1.00;;;;;16.80;71.88;100882.56;5091644;27;45499;-57
2022/09/10 06:19:23;;;;;;;;;3.00;3.00;;;;;16.80;72.15;100887.06;5106658;27;45737;-59
2022/09/10 06:21:51;;;;;;;;;2.33;2.33;;;;;16.83;71.88;100892.19;5095842;27;45187;-60
2022/09/10 06:24:18;;;;;;;;;2.67;2.67;;;;;16.82;72.01;100874.38;5095269;27;45479;-60
2022/09/10 06:26:47;;;;;;;;;2.00;2.00;;;;;16.87;71.68;100885.59;5096568;27;45459;-60
2022/09/10 06:29:13;;;;;;;;;1.33;1.00;;;;;16.88;71.49;100881.09;5095862;27;45451;-64
2022/09/10 06:31:38;;;;;;;;;4.00;4.00;;;;;16.89;71.95;100880.97;5093064;27;46031;-59
2022/09/10 06:34:04;;;;;;;;;3.00;2.00;;;;;16.91;71.87;100880.84;5101522;27;45325;-61
2022/09/10 06:36:30;;;;;;;;;2.00;2.00;;;;;16.89;71.66;100885.47;5094495;27;45437;-59
2022/09/10 06:38:56;;;;;;;;;2.33;2.33;;;;;16.91;71.45;100884.38;5088034;27;45898;-63
2022/09/10 06:41:23;;;;;;;;;3.00;3.00;;;;;16.95;71.34;100891.25;5095160;27;45514;-65
2022/09/10 06:43:49;;;;;;;;;4.00;3.00;;;;;16.98;71.50;100895.53;5088342;27;45584;-59
2022/09/10 06:46:16;;;;;;;;;3.00;1.00;;;;;17.03;71.49;100899.53;5090271;27;45484;-59
2022/09/10 06:48:42;;;;;;;;;2.00;1.00;;;;;17.03;71.47;100894.19;5079464;27;45460;-58
2022/09/10 06:51:12;;;;;;;;;5.00;2.00;;;;;17.05;71.02;100891.38;5093813;27;45439;-59
2022/09/10 06:53:39;;;;;;;;;2.67;1.00;;;;;17.08;71.19;100892.00;5099366;27;45459;-62
2022/09/10 06:56:07;;;;;;;;;2.00;2.00;;;;;16.97;71.20;100878.53;5114152;27;45421;-57
2022/09/10 06:58:34;;;;;;;;;3.00;3.00;;;;;17.06;71.19;100893.97;5101394;27;45558;-56
2022/09/10 07:01:13;;;;;;;;;0.33;0.33;;;;;17.03;71.05;100887.94;5096106;27;45362;-56
2022/09/10 07:03:39;;;;;;;;;2.00;2.00;;;;;17.08;71.18;100907.28;5086701;27;45358;-55
2022/09/10 07:06:09;;;;;;;;;2.33;2.33;;;;;17.07;71.25;100903.72;5078996;27;45357;-59
2022/09/10 07:08:34;;;;;;;;;4.00;2.00;;;;;17.12;71.31;100903.34;5077838;27;45579;-57
2022/09/10 07:11:03;;;;;;;;;2.00;2.00;;;;;17.16;71.06;100917.41;5099022;27;45798;-54
2022/09/10 07:13:29;;;;;;;;;3.00;3.00;;;;;17.20;70.96;100916.22;5086405;27;45422;-57
2022/09/10 07:15:55;;;;;;;;;5.00;2.00;;;;;17.25;70.84;100916.69;5084864;27;45419;-60
2022/09/10 07:18:20;;;;;;;;;4.00;2.00;;;;;17.26;70.62;100915.72;5086717;27;45417;-55
2022/09/10 07:20:46;;;;;;;;;2.00;2.00;;;;;17.24;70.68;100917.66;5095410;27;46426;-60
2022/09/10 07:23:13;;;;;;;;;2.00;2.00;;;;;17.18;70.77;100907.38;5095748;27;45403;-60
2022/09/10 07:25:39;;;;;;;;;2.33;2.00;;;;;17.20;70.55;100910.84;5090472;27;45493;-57
2022/09/10 07:28:06;;;;;;;;;3.33;3.00;;;;;17.30;70.51;100927.91;5097108;27;45394;-62
2022/09/10 07:30:32;;;;;;;;;3.00;3.00;;;;;17.33;70.44;100928.56;5093696;27;46222;-55
2022/09/10 07:32:57;;;;;;;;;2.00;2.00;;;;;17.37;70.01;100930.03;5099107;27;45152;-55
2022/09/10 07:35:24;;;;;;;;;1.00;1.00;;;;;17.42;69.75;100934.16;5096428;27;45178;-55
2022/09/10 07:37:49;;;;;;;;;3.00;2.00;;;;;17.45;69.86;100934.81;5098421;27;45332;-55
2022/09/10 07:40:15;;;;;;;;;4.33;2.00;;;;;17.44;70.20;100941.13;5080308;27;45431;-55
2022/09/10 07:42:42;;;;;;;;;3.00;3.00;;;;;17.44;70.10;100935.75;5097268;27;45483;-54
2022/09/10 07:45:12;;;;;;;;;4.00;3.00;;;;;17.41;70.10;100936.00;5107035;27;45407;-59
2022/09/10 07:47:39;;;;;;;;;2.00;2.00;;;;;17.46;69.98;100932.97;5095817;27;45492;-59
2022/09/10 07:50:06;;;;;;;;;3.00;3.00;;;;;17.51;70.17;100937.00;5098553;27;46250;-57
2022/09/10 07:52:32;;;;;;;;;4.67;2.67;;;;;17.57;69.87;100947.25;5080157;27;45309;-55
2022/09/10 07:54:57;;;;;;;;;2.00;2.00;;;;;17.63;69.87;100951.28;5099027;27;46116;-52
2022/09/10 07:57:23;;;;;;;;;4.67;3.33;;;;;17.69;69.86;100949.00;5090112;27;45724;-49
2022/09/10 07:59:48;;;;;;;;;2.00;2.00;;;;;17.76;69.27;100956.59;5086583;27;46029;-55
2022/09/10 08:02:14;;;;;;;;;2.00;2.00;;;;;17.80;69.82;100953.50;5087417;27;45764;-60
2022/09/10 08:04:40;;;;;;;;;1.00;1.00;;;;;17.84;69.17;100954.09;5077065;27;45435;-53
2022/09/10 08:07:05;;;;;;;;;5.33;3.33;;;;;17.89;69.22;100960.00;5077187;27;45526;-53
2022/09/10 08:09:30;;;;;;;;;3.00;3.00;;;;;17.91;69.35;100958.88;5084366;27;48563;-51
2022/09/10 08:11:56;;;;;;;;;1.33;1.33;;;;;17.95;68.74;100948.72;5092115;27;45557;-55
2022/09/10 08:14:22;;;;;;;;;2.33;2.00;;;;;18.09;68.75;100950.28;5085912;27;45471;-52
2022/09/10 08:16:47;;;;;;;;;2.67;1.33;;;;;18.17;68.35;100955.91;5086403;27;45717;-54
2022/09/10 08:19:14;;;;;;;;;1.67;1.00;;;;;18.12;68.52;100950.91;5104237;27;47703;-53
2022/09/10 08:21:40;;;;;;;;;3.33;3.33;;;;;18.25;68.01;100958.84;5095194;27;45475;-53
2022/09/10 08:24:07;;;;;;;;;4.67;3.00;;;;;18.25;67.64;100959.69;5094623;27;45814;-52
2022/09/10 08:26:33;;;;;;;;;2.33;2.33;;;;;18.27;67.70;100955.03;5098198;27;45426;-51
2022/09/10 08:28:58;;;;;;;;;3.00;3.00;;;;;18.30;67.68;100967.38;5090595;27;45440;-56
2022/09/10 08:31:25;;;;;;;;;3.00;2.00;;;;;18.26;67.51;100966.78;5097675;27;45225;-54
2022/09/10 08:33:55;;;;;;;;;2.33;2.33;;;;;18.24;67.62;100957.97;5101499;27;45754;-53
2022/09/10 08:36:22;;;;;;;;;3.67;2.00;;;;;18.25;67.75;100961.53;5109948;27;45763;-54
2022/09/10 08:38:49;;;;;;;;;2.67;1.00;;;;;18.30;67.95;100955.75;5098718;27;46016;-55
2022/09/10 08:41:27;;;;;;;;;3.67;3.33;;;;;18.43;67.50;100967.22;5093573;27;45247;-54
2022/09/10 08:44:02;;;;;;;;;2.33;2.00;;;;;18.57;66.89;100961.53;5097663;27;45302;-53
2022/09/10 08:46:32;;;;;;;;;2.00;2.00;;;;;18.66;67.03;100968.88;5097314;27;45628;-53
2022/09/10 08:49:13;;;;;;;;;5.33;2.00;;;;;18.67;66.72;100970.59;5097584;27;46274;-52
2022/09/10 08:51:55;;;;;;;;;2.00;2.00;;;;;18.63;66.55;100969.13;5098124;27;45262;-56
2022/09/10 08:54:36;;;;;;;;;3.00;1.00;;;;;18.72;66.73;100984.53;5096179;27;45740;-54
2022/09/10 08:57:05;;;;;;;;;7.00;4.00;;;;;18.76;66.78;100979.75;5087865;27;45503;-53
2022/09/10 08:59:43;;;;;;;;;4.00;2.67;;;;;18.68;66.50;100984.91;5077058;27;45946;-54
2022/09/10 09:02:20;;;;;;;;;4.00;1.00;;;;;18.67;66.74;100992.16;5076658;27;45324;-55
2022/09/10 09:05:01;;;;;;;;;3.67;3.00;;;;;18.61;67.11;100987.22;5076406;27;45384;-56
2022/09/10 09:07:36;;;;;;;;;4.67;2.00;;;;;18.61;67.16;100991.75;5089647;27;45807;-56
2022/09/10 09:10:04;;;;;;;;;4.67;2.67;;;;;18.54;67.34;100991.44;5092062;27;45227;-56
2022/09/10 09:12:51;;;;;;;;;4.00;4.00;;;;;18.54;67.40;100986.91;5084148;27;45414;-56
2022/09/10 09:15:29;;;;;;;;;3.00;3.00;;;;;18.50;67.67;100995.38;5084323;27;45584;-56
2022/09/10 09:17:58;;;;;;;;;4.00;1.67;;;;;18.47;68.01;100995.59;5095464;27;45581;-53
2022/09/10 09:20:32;;;;;;;;;2.00;2.00;;;;;18.47;68.89;101011.75;5085635;27;45547;-54
2022/09/10 09:23:36;;;;;;;;;4.00;2.00;;;;;18.41;69.01;101007.75;5089631;27;45275;-54
2022/09/10 09:26:12;;;;;;;;;1.33;1.33;;;;;18.42;69.07;101003.22;5068294;27;45524;-52
2022/09/10 09:28:59;;;;;;;;;3.00;1.00;;;;;18.42;69.36;101003.22;5091060;27;45501;-54
2022/09/10 09:31:29;;;;;;;;;1.33;1.33;;;;;18.35;69.25;100985.84;5082805;27;46197;-55
2022/09/10 09:34:00;;;;;;;;;3.00;1.67;;;;;18.46;69.21;101004.66;5092494;27;45445;-53
2022/09/10 09:36:34;;;;;;;;;3.00;3.00;;;;;18.41;69.53;101018.53;5095030;27;45375;-55
2022/09/10 09:39:01;;;;;;;;;1.00;1.00;;;;;18.37;69.65;101013.53;5093184;27;45510;-55
2022/09/10 09:41:41;;;;;;;;;6.00;3.33;;;;;18.41;69.64;101018.53;5096681;27;45575;-55
2022/09/10 09:44:33;;;;;;;;;3.00;1.33;;;;;18.40;69.81;101022.19;5083954;27;45425;-55
2022/09/10 09:46:59;;;;;;;;;3.00;3.00;;;;;18.32;69.95;101024.66;5085912;27;45423;-57
2022/09/10 09:49:28;;;;;;;;;3.00;3.00;;;;;18.31;70.02;101022.09;5092957;27;45515;-56
2022/09/10 09:51:53;;;;;;;;;3.00;3.00;;;;;18.26;70.48;101026.00;5094389;27;45396;-56
2022/09/10 09:54:24;;;;;;;;;2.00;2.00;;;;;18.23;70.49;101026.28;5088623;27;47205;-58
2022/09/10 09:56:53;;;;;;;;;7.33;4.33;;;;;18.25;71.26;101034.22;5092931;27;45222;-61
2022/09/10 09:59:30;;;;;;;;;5.00;3.00;;;;;18.36;71.97;101030.63;5113685;27;45487;-54
2022/09/10 10:02:04;;;;;;;;;2.00;2.00;;;;;18.39;71.27;101038.47;5112453;27;46129;-54
2022/09/10 10:04:30;;;;;;;;;4.33;3.00;;;;;18.37;70.58;101033.22;5091294;27;45385;-51
2022/09/10 10:07:00;;;;;;;;;3.67;3.67;;;;;18.32;70.63;101039.94;5078070;27;45457;-53
2022/09/10 10:09:31;;;;;;;;;2.67;2.67;;;;;18.27;70.88;101038.50;5089539;27;45644;-52
2022/09/10 10:12:03;;;;;;;;;4.00;2.67;;;;;18.25;71.60;101039.59;5093007;27;46166;-55
2022/09/10 10:14:31;;;;;;;;;6.00;3.00;;;;;18.23;70.66;101042.44;5097322;27;45516;-53
2022/09/10 10:16:59;;;;;;;;;3.00;3.00;;;;;18.20;70.91;101042.66;5091246;27;45550;-57
2022/09/10 10:19:39;;;;;;;;;3.00;3.00;;;;;18.20;70.77;101042.66;5092792;27;45229;-57
2022/09/10 10:22:13;;;;;;;;;4.00;4.00;;;;;18.22;70.79;101040.69;5092836;27;45557;-53
2022/09/10 10:24:44;;;;;;;;;4.00;4.00;;;;;18.23;70.25;101042.44;5094902;27;45341;-58
2022/09/10 10:27:18;;;;;;;;;3.00;3.00;;;;;18.25;70.97;101042.28;5095370;27;45314;-58
2022/09/10 10:30:03;;;;;;;;;4.67;4.00;;;;;18.29;70.89;101043.75;5099274;27;45670;-55
2022/09/10 10:32:53;;;;;;;;;4.33;3.00;;;;;18.41;70.95;101033.81;5094860;27;47316;-57
2022/09/10 10:35:52;;;;;;;;;4.00;4.00;;;;;18.44;70.68;101045.19;5095594;27;45630;-56
2022/09/10 10:38:30;;;;;;;;;4.00;4.00;;;;;18.38;70.65;101034.09;5096797;27;45386;-55
2022/09/10 10:41:10;;;;;;;;;3.00;3.00;;;;;18.39;71.41;101043.88;5100020;27;45248;-58
2022/09/10 10:44:05;;;;;;;;;3.00;2.00;;;;;18.31;71.62;101039.09;5093659;27;46466;-53
2022/09/10 10:46:53;;;;;;;;;5.00;3.00;;;;;18.33;72.62;101036.28;5082847;27;45446;-53
2022/09/10 10:49:42;;;;;;;;;5.00;4.00;;;;;18.37;72.66;101040.44;5099375;27;45350;-58
2022/09/10 10:52:37;;;;;;;;;6.33;4.00;;;;;18.40;72.75;101038.34;5091824;27;45572;-55
2022/09/10 10:55:05;;;;;;;;;5.00;4.67;;;;;18.48;72.55;101038.56;5092622;27;45700;-55
2022/09/10 10:58:00;;;;;;;;;4.00;4.00;;;;;18.50;72.83;101042.00;5099200;27;45435;-56
2022/09/10 11:00:30;;;;;;;;;4.33;4.00;;;;;18.57;72.16;101034.25;5095091;27;46332;-55
2022/09/10 11:03:14;;;;;;;;;4.00;4.00;;;;;18.56;71.75;101032.56;5079363;27;45310;-54
2022/09/10 11:05:52;;;;;;;;;3.33;2.33;;;;;18.65;71.00;101029.13;5082620;27;45978;-56
2022/09/10 11:08:50;;;;;;;;;8.00;4.00;;;;;18.73;71.14;101034.72;5099420;27;45380;-57
2022/09/10 11:11:21;;;;;;;;;4.67;2.33;;;;;18.79;71.45;101031.53;5089796;27;45568;-57
2022/09/10 11:13:58;;;;;;;;;2.67;2.67;;;;;18.92;70.84;101031.38;5092023;27;45312;-56
2022/09/10 11:16:57;;;;;;;;;4.00;4.00;;;;;19.05;70.83;101028.50;5091281;27;46128;-56
2022/09/10 11:19:40;;;;;;;;;5.33;5.33;;;;;19.12;70.10;101018.88;5084797;27;45483;-55
2022/09/10 11:22:17;;;;;;;;;4.00;4.00;;;;;19.18;69.77;101023.78;5080577;27;45459;-54
2022/09/10 11:25:15;;;;;;;;;3.00;3.00;;;;;19.22;69.95;101014.41;5083290;27;45539;-55
2022/09/10 11:27:48;;;;;;;;;4.67;3.67;;;;;19.32;69.33;101019.88;5069558;27;45332;-51
2022/09/10 11:30:15;;;;;;;;;3.67;3.67;;;;;19.36;69.21;101014.09;5088303;27;45490;-53
2022/09/10 11:32:49;;;;;;;;;4.67;4.67;;;;;19.48;68.47;101020.28;5080018;27;45601;-56
2022/09/10 11:35:21;;;;;;;;;4.00;4.00;;;;;19.53;68.71;101017.16;5086473;27;45749;-56
2022/09/10 11:38:00;;;;;;;;;5.00;3.33;;;;;19.53;68.42;101009.06;5091689;27;45610;-59